Time;durP1;ratioP1;P1;durP2;ratioP2;P2;SDS_P1;SDS_P2;PMS_P1;PMS_P2;Temp;Humidity;BMP_temperature;BMP_pressure;BME280_temperature;BME280_humidity;BME280_pressure;Samples;Min_cycle;Max_cycle;Signal;HPM_P1;HPM_P2
2022/09/16 00:00:31;;;;;;;;;;;;;;;;;;5036087;28;20281;-75
2022/09/16 00:02:58;;;;;;;;;;;;;;;;;;5020913;28;20015;-75
2022/09/16 00:05:25;;;;;;;;;;;;;;;;;;5016048;28;19925;-75
2022/09/16 00:07:51;;;;;;;;;;;;;;;;;;5015021;28;20434;-75
2022/09/16 00:10:18;;;;;;;;;;;;;;;;;;5014521;28;19925;-75
2022/09/16 00:12:46;;;;;;;;;;;;;;;;;;5014970;28;19932;-75
2022/09/16 00:15:13;;;;;;;;;;;;;;;;;;5015061;28;19931;-75
2022/09/16 00:17:40;;;;;;;;;;;;;;;;;;5015081;28;19926;-75
2022/09/16 00:20:07;;;;;;;;;;;;;;;;;;5014563;28;19943;-75
2022/09/16 00:22:33;;;;;;;;;;;;;;;;;;5014825;28;19984;-75
2022/09/16 00:25:00;;;;;;;;;;;;;;;;;;5014988;28;19972;-75
2022/09/16 00:27:26;;;;;;;;;;;;;;;;;;5014598;28;20340;-75
2022/09/16 00:29:54;;;;;;;;;;;;;;;;;;5014571;28;20574;-75
2022/09/16 00:32:22;;;;;;;;;;;;;;;;;;5016692;28;20320;-75
2022/09/16 00:34:49;;;;;;;;;;;;;;;;;;5027936;28;19969;-77
2022/09/16 00:37:15;;;;;;;;;;;;;;;;;;5020951;28;19925;-83
2022/09/16 00:39:42;;;;;;;;;;;;;;;;;;5035082;28;19933;-75
2022/09/16 00:42:11;;;;;;;;;;;;;;;;;;5033521;28;19932;-75
2022/09/16 00:44:58;;;;;;;;;;;;;;;;;;5021521;28;20392;-75
2022/09/16 00:47:28;;;;;;;;;;;;;;;;;;5025003;28;19984;-75
2022/09/16 00:49:58;;;;;;;;;;;;;;;;;;5037104;28;19925;-75
2022/09/16 00:52:25;;;;;;;;;;;;;;;;;;5033948;28;19968;-74
2022/09/16 00:54:52;;;;;;;;;;;;;;;;;;5018552;28;19976;-75
2022/09/16 00:57:18;;;;;;;;;;;;;;;;;;5019758;28;19979;-76
2022/09/16 00:59:47;;;;;;;;;;;;;;;;;;5019129;28;20102;-75
2022/09/16 01:02:17;;;;;;;;;;;;;;;;;;5023163;28;19925;-75
2022/09/16 01:04:46;;;;;;;;;;;;;;;;;;5023678;28;19925;-75
2022/09/16 01:07:13;;;;;;;;;;;;;;;;;;5014181;28;19985;-75
2022/09/16 01:09:39;;;;;;;;;;;;;;;;;;5021413;28;19925;-75
2022/09/16 01:12:06;;;;;;;;;;;;;;;;;;5016454;28;19925;-76
2022/09/16 01:17:22;;;;;;;;;;;;;;;;;;5013705;28;20016;-74
2022/09/16 01:19:58;;;;;;;;;;;;;;;;;;5021685;28;20379;-75
2022/09/16 01:22:32;;;;;;;;;;;;;;;;;;5033130;28;19972;-75
2022/09/16 01:25:04;;;;;;;;;;;;;;;;;;5032920;28;19926;-78
2022/09/16 01:27:56;;;;;;;;;;;;;;;;;;5011082;28;20416;-75
2022/09/16 01:30:46;;;;;;;;;;;;;;;;;;5013071;28;20021;-75
2022/09/16 01:33:18;;;;;;;;;;;;;;;;;;5013727;28;20312;-75
2022/09/16 01:35:49;;;;;;;;;;;;;;;;;;5013307;28;20412;-75
2022/09/16 01:38:24;;;;;;;;;;;;;;;;;;5013529;28;19973;-75
2022/09/16 01:40:53;;;;;;;;;;;;;;;;;;5013188;28;20388;-75
2022/09/16 01:43:21;;;;;;;;;;;;;;;;;;5013319;28;19926;-75
2022/09/16 01:45:53;;;;;;;;;;;;;;;;;;5013059;28;20396;-76
2022/09/16 01:48:23;;;;;;;;;;;;;;;;;;5013233;28;20052;-73
2022/09/16 01:50:52;;;;;;;;;;;;;;;;;;5013128;28;19972;-75
2022/09/16 01:53:21;;;;;;;;;;;;;;;;;;5029611;28;19957;-75
2022/09/16 01:55:49;;;;;;;;;;;;;;;;;;5034066;28;20291;-74
2022/09/16 01:58:17;;;;;;;;;;;;;;;;;;5033083;28;19929;-76
2022/09/16 02:00:45;;;;;;;;;;;;;;;;;;5025145;28;20043;-75
2022/09/16 02:03:15;;;;;;;;;;;;;;;;;;5030961;28;20346;-75
2022/09/16 02:05:44;;;;;;;;;;;;;;;;;;5033608;28;20386;-75
2022/09/16 02:08:12;;;;;;;;;;;;;;;;;;5022649;28;19926;-75
2022/09/16 02:10:40;;;;;;;;;;;;;;;;;;5012783;28;20004;-74
2022/09/16 02:13:10;;;;;;;;;;;;;;;;;;5013478;28;20016;-75
2022/09/16 02:15:39;;;;;;;;;;;;;;;;;;5027181;28;19963;-75
2022/09/16 02:18:08;;;;;;;;;;;;;;;;;;5032747;28;20307;-75
2022/09/16 02:20:39;;;;;;;;;;;;;;;;;;5032412;28;19935;-75
2022/09/16 02:23:09;;;;;;;;;;;;;;;;;;5032714;28;19925;-75
2022/09/16 02:25:38;;;;;;;;;;;;;;;;;;5032277;28;20016;-75
2022/09/16 02:28:10;;;;;;;;;;;;;;;;;;5033035;28;20020;-76
2022/09/16 02:30:36;;;;;;;;;;;;;;;;;;5014387;28;19949;-75
2022/09/16 02:33:04;;;;;;;;;;;;;;;;;;5013233;28;19977;-75
2022/09/16 02:35:35;;;;;;;;;;;;;;;;;;5013539;28;19925;-75
2022/09/16 02:38:04;;;;;;;;;;;;;;;;;;5013244;28;19926;-75
2022/09/16 02:40:34;;;;;;;;;;;;;;;;;;5018701;28;20012;-75
2022/09/16 02:43:01;;;;;;;;;;;;;;;;;;5022007;28;19925;-74
2022/09/16 02:45:34;;;;;;;;;;;;;;;;;;5023110;28;19926;-75
2022/09/16 02:48:02;;;;;;;;;;;;;;;;;;5022142;28;20012;-75
2022/09/16 02:50:30;;;;;;;;;;;;;;;;;;5021933;28;20384;-75
2022/09/16 02:52:59;;;;;;;;;;;;;;;;;;5023277;28;19933;-74
2022/09/16 02:55:30;;;;;;;;;;;;;;;;;;5026294;28;19981;-74
2022/09/16 02:57:57;;;;;;;;;;;;;;;;;;5037240;28;19925;-75
2022/09/16 03:00:24;;;;;;;;;;;;;;;;;;5035189;28;19929;-76
2022/09/16 03:02:51;;;;;;;;;;;;;;;;;;5018093;28;19932;-75
2022/09/16 03:05:17;;;;;;;;;;;;;;;;;;5016773;28;19932;-74
2022/09/16 03:07:44;;;;;;;;;;;;;;;;;;5019843;28;19983;-75
2022/09/16 03:10:11;;;;;;;;;;;;;;;;;;5014456;28;20008;-75
2022/09/16 03:12:45;;;;;;;;;;;;;;;;;;5018965;28;19971;-77
2022/09/16 03:15:20;;;;;;;;;;;;;;;;;;5031726;28;19936;-77
2022/09/16 03:17:51;;;;;;;;;;;;;;;;;;5031966;28;19983;-75
2022/09/16 03:20:21;;;;;;;;;;;;;;;;;;5032463;28;19932;-75
2022/09/16 03:22:48;;;;;;;;;;;;;;;;;;5031751;28;19925;-75
2022/09/16 03:25:22;;;;;;;;;;;;;;;;;;5024391;28;19926;-74
2022/09/16 03:27:51;;;;;;;;;;;;;;;;;;5011827;28;20024;-75
2022/09/16 03:30:17;;;;;;;;;;;;;;;;;;5011443;28;19930;-75
2022/09/16 03:32:47;;;;;;;;;;;;;;;;;;5011844;28;19965;-75
2022/09/16 03:35:17;;;;;;;;;;;;;;;;;;5011961;28;20012;-75
2022/09/16 03:37:45;;;;;;;;;;;;;;;;;;5011602;28;19929;-75
2022/09/16 03:40:12;;;;;;;;;;;;;;;;;;5011103;28;19932;-75
2022/09/16 03:42:39;;;;;;;;;;;;;;;;;;5011862;28;20009;-76
2022/09/16 03:45:09;;;;;;;;;;;;;;;;;;5012042;28;19925;-75
2022/09/16 03:47:36;;;;;;;;;;;;;;;;;;5013208;28;19932;-74
2022/09/16 03:50:03;;;;;;;;;;;;;;;;;;5015424;28;19976;-74
2022/09/16 03:52:29;;;;;;;;;;;;;;;;;;5021064;28;19929;-73
2022/09/16 03:54:56;;;;;;;;;;;;;;;;;;5034966;28;19932;-74
2022/09/16 03:57:22;;;;;;;;;;;;;;;;;;5035030;28;20105;-73
2022/09/16 03:59:49;;;;;;;;;;;;;;;;;;5034691;28;19972;-74
2022/09/16 04:02:17;;;;;;;;;;;;;;;;;;5025136;28;20008;-73
2022/09/16 04:04:43;;;;;;;;;;;;;;;;;;5014967;28;19969;-73
2022/09/16 04:07:09;;;;;;;;;;;;;;;;;;5014963;28;20030;-72
2022/09/16 04:09:37;;;;;;;;;;;;;;;;;;5014160;28;19972;-73
2022/09/16 04:12:04;;;;;;;;;;;;;;;;;;5015171;28;19926;-74
2022/09/16 04:14:30;;;;;;;;;;;;;;;;;;5014918;28;19929;-75
2022/09/16 04:16:57;;;;;;;;;;;;;;;;;;5015254;28;20013;-72
2022/09/16 04:19:25;;;;;;;;;;;;;;;;;;5014153;28;19997;-72
2022/09/16 04:21:51;;;;;;;;;;;;;;;;;;5032002;28;19931;-72
2022/09/16 04:24:18;;;;;;;;;;;;;;;;;;5034137;28;19976;-73
2022/09/16 04:26:44;;;;;;;;;;;;;;;;;;5033976;28;19925;-73
2022/09/16 04:29:11;;;;;;;;;;;;;;;;;;5034080;28;19925;-72
2022/09/16 04:31:38;;;;;;;;;;;;;;;;;;5034520;28;19925;-72
2022/09/16 04:34:05;;;;;;;;;;;;;;;;;;5034323;28;19925;-72
2022/09/16 04:36:32;;;;;;;;;;;;;;;;;;5034087;28;19972;-73
2022/09/16 04:38:59;;;;;;;;;;;;;;;;;;5033646;28;19971;-72
2022/09/16 04:41:26;;;;;;;;;;;;;;;;;;5033928;28;19929;-72
2022/09/16 04:43:54;;;;;;;;;;;;;;;;;;5016067;28;19937;-73
2022/09/16 04:46:21;;;;;;;;;;;;;;;;;;5014286;28;19951;-73
2022/09/16 04:48:48;;;;;;;;;;;;;;;;;;5030180;28;19925;-74
2022/09/16 04:51:14;;;;;;;;;;;;;;;;;;5033954;28;20070;-74
2022/09/16 04:53:43;;;;;;;;;;;;;;;;;;5034893;28;19925;-73
2022/09/16 04:56:13;;;;;;;;;;;;;;;;;;5050448;28;19940;-72
2022/09/16 04:58:42;;;;;;;;;;;;;;;;;;5039646;28;19931;-73
2022/09/16 05:01:11;;;;;;;;;;;;;;;;;;5033478;28;20390;-73
2022/09/16 05:03:38;;;;;;;;;;;;;;;;;;5014348;28;19925;-73
2022/09/16 05:06:05;;;;;;;;;;;;;;;;;;5014048;28;19968;-73
2022/09/16 05:08:34;;;;;;;;;;;;;;;;;;5013337;28;19930;-73
2022/09/16 05:11:04;;;;;;;;;;;;;;;;;;5013541;28;19929;-73
2022/09/16 05:13:30;;;;;;;;;;;;;;;;;;5014129;28;19933;-74
2022/09/16 05:16:00;;;;;;;;;;;;;;;;;;5023697;28;20146;-74
2022/09/16 05:18:27;;;;;;;;;;;;;;;;;;5033059;28;19953;-74
2022/09/16 05:20:56;;;;;;;;;;;;;;;;;;5033299;28;19988;-74
2022/09/16 05:23:23;;;;;;;;;;;;;;;;;;5033067;28;20003;-73
2022/09/16 05:25:49;;;;;;;;;;;;;;;;;;5033504;28;19925;-73
2022/09/16 05:28:17;;;;;;;;;;;;;;;;;;5033588;28;20474;-73
2022/09/16 05:30:43;;;;;;;;;;;;;;;;;;5033260;28;20299;-74
2022/09/16 05:33:10;;;;;;;;;;;;;;;;;;5015811;28;20092;-73
2022/09/16 05:35:36;;;;;;;;;;;;;;;;;;5013539;28;20495;-74
2022/09/16 05:38:03;;;;;;;;;;;;;;;;;;5012801;28;19925;-73
2022/09/16 05:40:29;;;;;;;;;;;;;;;;;;5012596;28;20408;-73
2022/09/16 05:42:56;;;;;;;;;;;;;;;;;;5014717;28;19929;-74
2022/09/16 05:45:24;;;;;;;;;;;;;;;;;;5032485;28;20396;-74
2022/09/16 05:47:50;;;;;;;;;;;;;;;;;;5033870;28;19929;-74
2022/09/16 05:50:17;;;;;;;;;;;;;;;;;;5032358;28;20004;-75
2022/09/16 05:52:43;;;;;;;;;;;;;;;;;;5031181;28;19925;-72
2022/09/16 05:55:09;;;;;;;;;;;;;;;;;;5031131;28;19925;-73
2022/09/16 05:57:36;;;;;;;;;;;;;;;;;;5032771;28;19925;-73
2022/09/16 06:00:03;;;;;;;;;;;;;;;;;;5032035;28;20004;-73
2022/09/16 06:02:31;;;;;;;;;;;;;;;;;;5020814;28;19925;-72
2022/09/16 06:04:58;;;;;;;;;;;;;;;;;;5012986;28;19929;-73
2022/09/16 06:07:24;;;;;;;;;;;;;;;;;;5012973;28;19925;-73
2022/09/16 06:09:51;;;;;;;;;;;;;;;;;;5012300;28;19976;-73
2022/09/16 06:12:18;;;;;;;;;;;;;;;;;;5012642;28;19973;-72
2022/09/16 06:14:44;;;;;;;;;;;;;;;;;;5012473;28;19967;-72
2022/09/16 06:17:11;;;;;;;;;;;;;;;;;;5012851;28;19932;-72
2022/09/16 06:19:39;;;;;;;;;;;;;;;;;;5012291;28;19930;-72
2022/09/16 06:22:05;;;;;;;;;;;;;;;;;;5012565;28;20315;-72
2022/09/16 06:24:31;;;;;;;;;;;;;;;;;;5012528;28;20028;-73
2022/09/16 06:26:58;;;;;;;;;;;;;;;;;;5012619;28;19929;-73
2022/09/16 06:29:25;;;;;;;;;;;;;;;;;;5012019;28;20004;-73
2022/09/16 06:31:51;;;;;;;;;;;;;;;;;;5012681;28;19925;-73
2022/09/16 06:34:18;;;;;;;;;;;;;;;;;;5012323;28;20472;-73
2022/09/16 06:36:46;;;;;;;;;;;;;;;;;;5012506;28;19925;-72
2022/09/16 06:39:13;;;;;;;;;;;;;;;;;;5011927;28;19925;-72
2022/09/16 06:41:39;;;;;;;;;;;;;;;;;;5012335;28;19968;-73
2022/09/16 06:44:06;;;;;;;;;;;;;;;;;;5012754;28;20296;-73
2022/09/16 06:46:32;;;;;;;;;;;;;;;;;;5012835;28;20020;-73
2022/09/16 06:48:59;;;;;;;;;;;;;;;;;;5012677;28;19932;-76
2022/09/16 06:51:26;;;;;;;;;;;;;;;;;;5028354;28;19926;-73
2022/09/16 06:53:55;;;;;;;;;;;;;;;;;;5017838;28;19988;-72
2022/09/16 06:56:22;;;;;;;;;;;;;;;;;;5014844;28;19952;-73
2022/09/16 06:58:51;;;;;;;;;;;;;;;;;;5014818;28;20020;-73
2022/09/16 07:01:19;;;;;;;;;;;;;;;;;;5015107;28;19933;-72
2022/09/16 07:03:46;;;;;;;;;;;;;;;;;;5015480;28;19961;-74
2022/09/16 07:06:13;;;;;;;;;;;;;;;;;;5012804;28;19931;-75
2022/09/16 07:08:40;;;;;;;;;;;;;;;;;;5011989;28;20012;-74
2022/09/16 07:11:10;;;;;;;;;;;;;;;;;;5012220;28;19929;-75
2022/09/16 07:13:36;;;;;;;;;;;;;;;;;;5012150;28;20019;-75
2022/09/16 07:16:04;;;;;;;;;;;;;;;;;;5012356;28;20377;-74
2022/09/16 07:18:30;;;;;;;;;;;;;;;;;;5012033;28;20021;-74
2022/09/16 07:21:03;;;;;;;;;;;;;;;;;;5011737;28;19960;-74
2022/09/16 07:23:30;;;;;;;;;;;;;;;;;;5012606;28;19929;-74
2022/09/16 07:26:00;;;;;;;;;;;;;;;;;;5015811;28;19925;-74
2022/09/16 07:28:28;;;;;;;;;;;;;;;;;;5015636;28;19925;-74
2022/09/16 07:30:55;;;;;;;;;;;;;;;;;;5015451;28;19926;-73
2022/09/16 07:33:22;;;;;;;;;;;;;;;;;;5015553;28;20262;-75
2022/09/16 07:35:48;;;;;;;;;;;;;;;;;;5015444;28;19936;-74
2022/09/16 07:38:15;;;;;;;;;;;;;;;;;;5015474;28;20285;-74
2022/09/16 07:40:41;;;;;;;;;;;;;;;;;;5015069;28;20004;-73
2022/09/16 07:43:07;;;;;;;;;;;;;;;;;;5015444;28;19926;-74
2022/09/16 07:45:35;;;;;;;;;;;;;;;;;;5015274;28;20012;-74
2022/09/16 07:48:02;;;;;;;;;;;;;;;;;;5015492;28;19925;-74
2022/09/16 07:50:28;;;;;;;;;;;;;;;;;;5015004;28;20307;-74
2022/09/16 07:52:55;;;;;;;;;;;;;;;;;;5015462;28;20291;-74
2022/09/16 07:55:22;;;;;;;;;;;;;;;;;;5015062;28;19925;-74
2022/09/16 07:57:48;;;;;;;;;;;;;;;;;;5015428;28;20027;-74
2022/09/16 08:00:15;;;;;;;;;;;;;;;;;;5015126;28;19976;-74
2022/09/16 08:02:43;;;;;;;;;;;;;;;;;;5028193;28;19925;-73
2022/09/16 08:05:09;;;;;;;;;;;;;;;;;;5034638;28;20012;-73
2022/09/16 08:07:36;;;;;;;;;;;;;;;;;;5034703;28;20459;-74
2022/09/16 08:10:03;;;;;;;;;;;;;;;;;;5034166;28;20016;-74
2022/09/16 08:12:31;;;;;;;;;;;;;;;;;;5035439;28;19995;-74
2022/09/16 08:14:58;;;;;;;;;;;;;;;;;;5034762;28;20343;-73
2022/09/16 08:17:24;;;;;;;;;;;;;;;;;;5034182;28;19925;-74
2022/09/16 08:19:52;;;;;;;;;;;;;;;;;;5034743;28;20451;-75
2022/09/16 08:22:18;;;;;;;;;;;;;;;;;;5034865;28;19969;-74
2022/09/16 08:24:45;;;;;;;;;;;;;;;;;;5034514;28;19972;-74
2022/09/16 08:27:11;;;;;;;;;;;;;;;;;;5034258;28;19983;-73
2022/09/16 08:29:38;;;;;;;;;;;;;;;;;;5033921;28;20007;-73
2022/09/16 08:32:04;;;;;;;;;;;;;;;;;;5033959;28;20391;-74
2022/09/16 08:34:31;;;;;;;;;;;;;;;;;;5034703;28;19980;-74
2022/09/16 08:36:58;;;;;;;;;;;;;;;;;;5034339;28;19971;-74
2022/09/16 08:39:25;;;;;;;;;;;;;;;;;;5034338;28;20013;-73
2022/09/16 08:42:06;;;;;;;;;;;;;;;;;;5034484;28;19975;-73
2022/09/16 08:44:38;;;;;;;;;;;;;;;;;;5021394;28;20021;-74
2022/09/16 08:47:07;;;;;;;;;;;;;;;;;;5034291;28;19925;-73
2022/09/16 08:49:35;;;;;;;;;;;;;;;;;;5033571;28;19975;-73
2022/09/16 08:52:08;;;;;;;;;;;;;;;;;;5034046;28;19994;-74
2022/09/16 08:54:38;;;;;;;;;;;;;;;;;;5034209;28;20284;-74
2022/09/16 08:57:06;;;;;;;;;;;;;;;;;;5034022;28;20012;-74
2022/09/16 08:59:34;;;;;;;;;;;;;;;;;;5033837;28;19979;-74
2022/09/16 09:02:07;;;;;;;;;;;;;;;;;;5026378;28;19984;-73
2022/09/16 09:04:33;;;;;;;;;;;;;;;;;;5014597;28;20348;-74
2022/09/16 09:07:06;;;;;;;;;;;;;;;;;;5014225;28;19933;-74
2022/09/16 09:09:48;;;;;;;;;;;;;;;;;;5013122;28;19925;-74
2022/09/16 09:12:18;;;;;;;;;;;;;;;;;;5013796;28;19925;-74
2022/09/16 09:14:56;;;;;;;;;;;;;;;;;;5013971;28;19926;-74
2022/09/16 09:17:27;;;;;;;;;;;;;;;;;;5013688;28;20012;-74
2022/09/16 09:19:59;;;;;;;;;;;;;;;;;;5013091;28;20380;-74
2022/09/16 09:22:32;;;;;;;;;;;;;;;;;;5013732;28;19929;-74
2022/09/16 09:25:07;;;;;;;;;;;;;;;;;;5013934;28;19925;-74
2022/09/16 09:27:37;;;;;;;;;;;;;;;;;;5013579;28;19925;-74
2022/09/16 09:30:10;;;;;;;;;;;;;;;;;;5012985;28;20296;-73
2022/09/16 09:32:43;;;;;;;;;;;;;;;;;;5013174;28;19931;-73
2022/09/16 09:35:20;;;;;;;;;;;;;;;;;;5013487;28;19933;-73
2022/09/16 09:37:54;;;;;;;;;;;;;;;;;;5013710;28;19925;-73
2022/09/16 09:40:30;;;;;;;;;;;;;;;;;;5012961;28;19926;-74
2022/09/16 09:43:04;;;;;;;;;;;;;;;;;;5013158;28;19977;-74
2022/09/16 09:45:33;;;;;;;;;;;;;;;;;;5013427;28;19938;-74
2022/09/16 09:48:01;;;;;;;;;;;;;;;;;;5018722;28;19979;-73
2022/09/16 09:50:29;;;;;;;;;;;;;;;;;;5033124;28;19935;-73
2022/09/16 09:52:58;;;;;;;;;;;;;;;;;;5033911;28;19971;-73
2022/09/16 09:55:27;;;;;;;;;;;;;;;;;;5033397;28;20281;-73
2022/09/16 09:58:09;;;;;;;;;;;;;;;;;;5033920;28;19980;-74
2022/09/16 10:00:36;;;;;;;;;;;;;;;;;;5028136;28;19929;-75
2022/09/16 10:03:05;;;;;;;;;;;;;;;;;;5028644;28;19925;-75
2022/09/16 10:05:32;;;;;;;;;;;;;;;;;;5017038;28;20398;-73
2022/09/16 10:08:00;;;;;;;;;;;;;;;;;;5031401;28;19925;-79
2022/09/16 10:10:30;;;;;;;;;;;;;;;;;;5030691;28;19997;-76
2022/09/16 10:13:06;;;;;;;;;;;;;;;;;;5014597;28;19933;-76
2022/09/16 10:15:33;;;;;;;;;;;;;;;;;;5011194;28;19952;-74
2022/09/16 10:18:00;;;;;;;;;;;;;;;;;;5011142;28;19949;-75
2022/09/16 10:20:28;;;;;;;;;;;;;;;;;;5010724;28;20466;-77
2022/09/16 10:22:57;;;;;;;;;;;;;;;;;;5012692;28;19965;-75
2022/09/16 10:25:25;;;;;;;;;;;;;;;;;;5015808;28;19975;-76
2022/09/16 10:27:57;;;;;;;;;;;;;;;;;;5014797;28;19945;-76
2022/09/16 10:30:23;;;;;;;;;;;;;;;;;;5018633;28;19925;-79
2022/09/16 10:32:51;;;;;;;;;;;;;;;;;;5017906;28;19966;-75
2022/09/16 10:35:20;;;;;;;;;;;;;;;;;;5014504;28;19941;-76
2022/09/16 10:37:49;;;;;;;;;;;;;;;;;;5012739;28;19933;-75
2022/09/16 10:40:17;;;;;;;;;;;;;;;;;;5012598;28;20013;-76
2022/09/16 10:42:46;;;;;;;;;;;;;;;;;;5012405;28;19931;-77
2022/09/16 10:45:16;;;;;;;;;;;;;;;;;;5011691;28;19925;-77
2022/09/16 10:47:48;;;;;;;;;;;;;;;;;;5021831;28;19984;-76
2022/09/16 10:50:17;;;;;;;;;;;;;;;;;;5021830;28;19997;-76
2022/09/16 10:52:44;;;;;;;;;;;;;;;;;;5014058;28;19925;-78
2022/09/16 10:55:20;;;;;;;;;;;;;;;;;;5019874;28;20016;-75
2022/09/16 10:57:46;;;;;;;;;;;;;;;;;;5011338;28;19926;-75
2022/09/16 11:00:15;;;;;;;;;;;;;;;;;;5013628;28;20076;-75
2022/09/16 11:02:51;;;;;;;;;;;;;;;;;;5027290;28;20434;-75
2022/09/16 11:05:21;;;;;;;;;;;;;;;;;;5034200;28;19925;-75
2022/09/16 11:07:52;;;;;;;;;;;;;;;;;;5022380;28;20017;-76
2022/09/16 11:10:23;;;;;;;;;;;;;;;;;;5016239;28;19932;-76
2022/09/16 11:13:22;;;;;;;;;;;;;;;;;;5024462;28;19933;-76
2022/09/16 11:15:57;;;;;;;;;;;;;;;;;;4946463;29;20022;-76
2022/09/16 11:18:32;;;;;;;;;;;;;;;;;;4952869;29;20001;-77
2022/09/16 11:21:03;;;;;;;;;;;;;;;;;;4996565;28;20458;-76
2022/09/16 11:23:37;;;;;;;;;;;;;;;;;;5017833;28;19999;-76
2022/09/16 11:26:07;;;;;;;;;;;;;;;;;;5018292;28;20016;-76
2022/09/16 11:28:42;;;;;;;;;;;;;;;;;;5016828;28;20420;-76
2022/09/16 11:31:16;;;;;;;;;;;;;;;;;;5026304;28;20008;-77
2022/09/16 11:33:49;;;;;;;;;;;;;;;;;;5033328;28;20016;-77
2022/09/16 11:36:22;;;;;;;;;;;;;;;;;;5033657;28;19925;-76
2022/09/16 11:38:54;;;;;;;;;;;;;;;;;;5033263;28;19925;-75
2022/09/16 11:41:24;;;;;;;;;;;;;;;;;;5033041;28;19971;-75
2022/09/16 11:44:15;;;;;;;;;;;;;;;;;;5032875;28;19929;-76
2022/09/16 11:46:47;;;;;;;;;;;;;;;;;;5017890;28;19955;-75
2022/09/16 11:49:21;;;;;;;;;;;;;;;;;;5026598;28;19935;-76
2022/09/16 11:51:57;;;;;;;;;;;;;;;;;;5024276;28;19925;-75
2022/09/16 11:54:33;;;;;;;;;;;;;;;;;;5033015;28;19929;-75
2022/09/16 11:57:02;;;;;;;;;;;;;;;;;;5013221;28;19936;-75
2022/09/16 11:59:33;;;;;;;;;;;;;;;;;;5012954;28;19996;-75
2022/09/16 12:02:03;;;;;;;;;;;;;;;;;;5020747;28;20411;-75
2022/09/16 12:04:31;;;;;;;;;;;;;;;;;;5019851;28;19926;-75
2022/09/16 12:06:59;;;;;;;;;;;;;;;;;;5013358;28;20428;-75
2022/09/16 12:09:30;;;;;;;;;;;;;;;;;;5011728;28;19926;-75
2022/09/16 12:12:03;;;;;;;;;;;;;;;;;;5013230;28;19929;-75
2022/09/16 12:14:35;;;;;;;;;;;;;;;;;;5030448;28;19925;-75
2022/09/16 12:17:05;;;;;;;;;;;;;;;;;;5030911;28;20299;-75
2022/09/16 12:19:34;;;;;;;;;;;;;;;;;;5032274;28;20452;-75
2022/09/16 12:22:03;;;;;;;;;;;;;;;;;;5032478;28;19931;-75
2022/09/16 12:24:32;;;;;;;;;;;;;;;;;;5032421;28;19933;-75
2022/09/16 12:27:03;;;;;;;;;;;;;;;;;;5032700;28;19925;-75
2022/09/16 12:29:33;;;;;;;;;;;;;;;;;;5032135;28;20396;-75
2022/09/16 12:32:02;;;;;;;;;;;;;;;;;;5029567;28;20024;-75
2022/09/16 12:34:33;;;;;;;;;;;;;;;;;;5030095;28;20547;-75
2022/09/16 12:37:03;;;;;;;;;;;;;;;;;;5018684;28;20410;-75
2022/09/16 12:39:30;;;;;;;;;;;;;;;;;;5012724;28;20032;-80
2022/09/16 12:42:11;;;;;;;;;;;;;;;;;;5026203;28;19972;-83
2022/09/16 12:45:02;;;;;;;;;;;;;;;;;;5021716;28;19964;-77
2022/09/16 12:47:41;;;;;;;;;;;;;;;;;;5021547;28;19975;-76
2022/09/16 12:50:21;;;;;;;;;;;;;;;;;;5031192;28;19980;-76
2022/09/16 12:52:59;;;;;;;;;;;;;;;;;;5032094;28;19929;-77
2022/09/16 12:55:39;;;;;;;;;;;;;;;;;;5029489;28;19956;-76
2022/09/16 12:58:16;;;;;;;;;;;;;;;;;;5025657;28;20024;-76
2022/09/16 13:00:50;;;;;;;;;;;;;;;;;;5031523;28;20099;-76
2022/09/16 13:03:18;;;;;;;;;;;;;;;;;;5013506;28;20448;-76
2022/09/16 13:05:47;;;;;;;;;;;;;;;;;;5012369;28;19964;-76
2022/09/16 13:08:19;;;;;;;;;;;;;;;;;;5028623;28;19933;-76
2022/09/16 13:10:46;;;;;;;;;;;;;;;;;;5030306;28;19983;-76
2022/09/16 13:13:18;;;;;;;;;;;;;;;;;;5030483;28;19933;-76
2022/09/16 13:15:54;;;;;;;;;;;;;;;;;;5031913;28;20011;-77
2022/09/16 13:18:22;;;;;;;;;;;;;;;;;;5031466;28;20419;-76
2022/09/16 13:20:51;;;;;;;;;;;;;;;;;;5028773;28;20222;-77
2022/09/16 13:23:21;;;;;;;;;;;;;;;;;;5011873;28;20573;-76
2022/09/16 13:25:49;;;;;;;;;;;;;;;;;;5016163;28;19925;-76
2022/09/16 13:28:25;;;;;;;;;;;;;;;;;;5031076;28;19935;-76
2022/09/16 13:30:51;;;;;;;;;;;;;;;;;;5012804;28;19925;-76
2022/09/16 13:33:22;;;;;;;;;;;;;;;;;;5012014;28;19932;-76
2022/09/16 13:36:01;;;;;;;;;;;;;;;;;;5017761;28;19980;-77
2022/09/16 13:38:38;;;;;;;;;;;;;;;;;;5011783;28;19984;-77
2022/09/16 13:41:05;;;;;;;;;;;;;;;;;;5014646;28;20365;-76
2022/09/16 13:43:50;;;;;;;;;;;;;;;;;;5129738;27;19919;-50
2022/09/16 13:46:27;;;;;;;;;;;;;;;;;;5107816;28;19938;-54
2022/09/16 13:48:56;;;;;;;;;;;;;;;;;;5112617;28;19923;-54
2022/09/16 13:51:23;;;;;;;;;;;;;;;;;;5114451;28;19984;-52
2022/09/16 13:53:50;;;;;;;;;;;;;;;;;;5124889;28;19924;-51
2022/09/16 13:56:33;;;;;;;;;;;;;;;;;;5125997;28;20381;-50
2022/09/16 13:59:04;;;;;;;;;;;;;;;;;;5120636;28;19974;-56
2022/09/16 14:01:34;;;;;;;;;;;;;;;;;;5111375;28;19932;-54
2022/09/16 14:04:06;;;;;;;;;;;;;;;;;;5114654;28;19935;-55
2022/09/16 14:06:49;;;;;;;;;;;;;;;;;;5116805;28;20449;-54
2022/09/16 14:09:24;;;;;;;;;;;;;;;;;;5107253;28;19924;-53
2022/09/16 14:11:56;;;;;;;;;;;;;;;;;;5107923;28;20380;-55
2022/09/16 14:14:26;;;;;;;;;;;;;;;;;;5109344;28;20340;-54
2022/09/16 14:16:53;;;;;;;;;;;;;;;;;;5107632;28;19931;-54
2022/09/16 14:19:24;;;;;;;;;;;;;;;;;;5118266;28;19977;-53
2022/09/16 14:21:59;;;;;;;;;;;;;;;;;;5127430;28;19935;-52
2022/09/16 14:24:34;;;;;;;;;;;;;;;;;;5127633;28;19931;-51
2022/09/16 14:27:00;;;;;;;;;;;;;;;;;;5127563;28;19970;-54
2022/09/16 14:29:28;;;;;;;;;;;;;;;;;;5126855;28;19928;-55
2022/09/16 14:31:56;;;;;;;;;;;;;;;;;;5122833;28;19927;-54
2022/09/16 14:34:25;;;;;;;;;;;;;;;;;;5122271;28;20004;-54
2022/09/16 14:36:52;;;;;;;;;;;;;;;;;;5115649;28;19927;-55
2022/09/16 14:39:21;;;;;;;;;;;;;;;;;;5118570;28;19928;-51
2022/09/16 14:41:49;;;;;;;;;;;;;;;;;;5127505;28;21918;-53
2022/09/16 14:44:19;;;;;;;;;;;;;;;;;;5120690;28;20590;-54
2022/09/16 14:46:48;;;;;;;;;;;;;;;;;;5111761;28;19928;-55
2022/09/16 14:49:15;;;;;;;;;;;;;;;;;;5106548;28;20342;-52
2022/09/16 14:51:43;;;;;;;;;;;;;;;;;;5107234;28;20443;-54
2022/09/16 14:54:15;;;;;;;;;;;;;;;;;;5097886;28;19985;-54
2022/09/16 14:56:42;;;;;;;;;;;;;;;;;;5093453;28;19928;-53
2022/09/16 14:59:10;;;;;;;;;;;;;;;;;;5093173;28;19984;-53
2022/09/16 15:01:37;;;;;;;;;;;;;;;;;;5097677;28;20281;-54
2022/09/16 15:04:07;;;;;;;;;;;;;;;;;;5099863;28;19927;-54
2022/09/16 15:06:34;;;;;;;;;;;;;;;;;;5093553;28;19924;-52
2022/09/16 15:09:03;;;;;;;;;;;;;;;;;;5093055;28;19924;-51
2022/09/16 15:11:32;;;;;;;;;;;;;;;;;;5093306;28;19985;-53
2022/09/16 15:13:59;;;;;;;;;;;;;;;;;;5093471;28;19971;-51
2022/09/16 15:16:26;;;;;;;;;;;;;;;;;;5092851;28;20343;-50
2022/09/16 15:18:54;;;;;;;;;;;;;;;;;;5102396;28;19930;-51
2022/09/16 15:21:23;;;;;;;;;;;;;;;;;;5109323;28;19977;-51
2022/09/16 15:23:51;;;;;;;;;;;;;;;;;;5095409;28;19924;-52
2022/09/16 15:26:18;;;;;;;;;;;;;;;;;;5093052;28;19931;-52
2022/09/16 15:28:53;;;;;;;;;;;;;;;;;;5092255;28;19951;-59
2022/09/16 15:31:27;;;;;;;;;;;;;;;;;;5093337;28;19932;-54
2022/09/16 15:33:53;;;;;;;;;;;;;;;;;;5091150;28;19924;-50
2022/09/16 15:36:33;;;;;;;;;;;;;;;;;;5107212;28;19931;-51
2022/09/16 15:39:00;;;;;;;;;;;;;;;;;;5092521;28;19978;-50
2022/09/16 15:41:26;;;;;;;;;;;;;;;;;;5091074;28;19924;-52
2022/09/16 15:43:53;;;;;;;;;;;;;;;;;;5091343;28;19928;-50
2022/09/16 15:46:20;;;;;;;;;;;;;;;;;;5110275;28;19924;-54
2022/09/16 15:48:48;;;;;;;;;;;;;;;;;;5112987;28;19923;-49
2022/09/16 15:51:22;;;;;;;;;;;;;;;;;;5112540;28;20006;-54
2022/09/16 15:53:51;;;;;;;;;;;;;;;;;;5112611;28;19924;-54
2022/09/16 15:56:21;;;;;;;;;;;;;;;;;;5112778;28;20415;-52
2022/09/16 15:58:48;;;;;;;;;;;;;;;;;;5113056;28;19927;-53
2022/09/16 16:01:16;;;;;;;;;;;;;;;;;;5108468;28;19923;-53
2022/09/16 16:03:49;;;;;;;;;;;;;;;;;;5091948;28;19928;-50
2022/09/16 16:06:15;;;;;;;;;;;;;;;;;;5104184;28;19924;-53
2022/09/16 16:08:44;;;;;;;;;;;;;;;;;;5112003;28;19932;-54
2022/09/16 16:11:13;;;;;;;;;;;;;;;;;;5109288;28;19924;-53
2022/09/16 16:13:39;;;;;;;;;;;;;;;;;;5109847;28;19924;-52
2022/09/16 16:16:07;;;;;;;;;;;;;;;;;;5111465;28;19985;-53
2022/09/16 16:18:33;;;;;;;;;;;;;;;;;;5110560;28;19932;-53
2022/09/16 16:21:01;;;;;;;;;;;;;;;;;;5111598;28;19968;-53
2022/09/16 16:23:28;;;;;;;;;;;;;;;;;;5111949;28;19950;-51
2022/09/16 16:25:55;;;;;;;;;;;;;;;;;;5109752;28;19924;-49
2022/09/16 16:28:22;;;;;;;;;;;;;;;;;;5107564;28;19924;-50
2022/09/16 16:30:49;;;;;;;;;;;;;;;;;;5101336;28;19976;-52
2022/09/16 16:33:16;;;;;;;;;;;;;;;;;;5109097;28;19974;-53
2022/09/16 16:35:42;;;;;;;;;;;;;;;;;;5091236;28;20309;-50
2022/09/16 16:38:09;;;;;;;;;;;;;;;;;;5094126;28;19924;-54
2022/09/16 16:40:36;;;;;;;;;;;;;;;;;;5110636;28;19931;-55
2022/09/16 16:43:02;;;;;;;;;;;;;;;;;;5111621;28;19924;-56
2022/09/16 16:45:31;;;;;;;;;;;;;;;;;;5111789;28;19924;-56
2022/09/16 16:47:57;;;;;;;;;;;;;;;;;;5111804;28;20039;-58
2022/09/16 16:50:24;;;;;;;;;;;;;;;;;;5111694;28;19977;-57
2022/09/16 16:52:52;;;;;;;;;;;;;;;;;;5111442;28;19924;-56
2022/09/16 16:55:18;;;;;;;;;;;;;;;;;;5111949;28;19989;-54
2022/09/16 16:57:45;;;;;;;;;;;;;;;;;;5111672;28;19927;-56
2022/09/16 17:00:13;;;;;;;;;;;;;;;;;;5111709;28;19946;-58
2022/09/16 17:02:41;;;;;;;;;;;;;;;;;;5111660;28;19924;-57